Time;durP1;ratioP1;P1;durP2;ratioP2;P2;SDS_P1;SDS_P2;PMS_P1;PMS_P2;Temp;Humidity;BMP_temperature;BMP_pressure;BME280_temperature;BME280_humidity;BME280_pressure;Samples;Min_cycle;Max_cycle;Signal;HPM_P1;HPM_P2
2023/08/28 00:02:20;;;;;;;22.57;15.23;;;21.30;99.90;;;;;;6125381;23;20168;-79
2023/08/28 00:04:57;;;;;;;22.23;15.57;;;21.20;99.90;;;;;;6125261;23;20255;-79
2023/08/28 00:07:48;;;;;;;25.37;15.93;;;21.00;99.90;;;;;;6122705;23;20246;-79
2023/08/28 00:10:22;;;;;;;24.77;16.83;;;21.10;99.90;;;;;;6102716;23;20202;-79
2023/08/28 00:13:02;;;;;;;24.37;16.00;;;21.00;99.90;;;;;;6125424;23;20248;-79
2023/08/28 00:15:34;;;;;;;22.47;15.73;;;21.00;99.90;;;;;;6122555;23;20177;-79
2023/08/28 00:18:02;;;;;;;26.50;15.97;;;21.00;99.90;;;;;;6123828;23;20177;-79
2023/08/28 00:20:35;;;;;;;23.37;15.83;;;21.00;99.90;;;;;;6098101;23;20221;-79
2023/08/28 00:23:18;;;;;;;24.00;15.57;;;21.10;99.90;;;;;;6100819;23;20184;-79
2023/08/28 00:25:49;;;;;;;24.47;15.37;;;21.00;99.90;;;;;;6124033;23;20175;-79
2023/08/28 00:28:30;;;;;;;24.83;15.70;;;21.00;99.90;;;;;;6123872;23;20259;-79
2023/08/28 00:31:07;;;;;;;24.17;15.73;;;20.90;99.90;;;;;;6123346;23;20196;-79
2023/08/28 00:33:41;;;;;;;24.17;16.13;;;20.90;99.90;;;;;;6125378;23;20336;-80
2023/08/28 00:36:15;;;;;;;23.33;16.13;;;20.90;99.90;;;;;;6125074;23;20285;-80
2023/08/28 00:38:56;;;;;;;21.40;15.20;;;20.90;99.90;;;;;;6124786;23;20181;-79
2023/08/28 00:41:23;;;;;;;22.20;15.83;;;20.90;99.90;;;;;;6099816;23;20591;-79
2023/08/28 00:43:57;;;;;;;22.37;15.57;;;20.90;99.90;;;;;;6122437;23;20180;-80
2023/08/28 00:46:35;;;;;;;22.40;16.00;;;20.80;99.90;;;;;;6123141;23;20219;-80
2023/08/28 00:49:17;;;;;;;26.73;16.27;;;20.80;99.90;;;;;;6125158;23;20232;-81
2023/08/28 00:51:55;;;;;;;24.83;17.27;;;20.70;99.90;;;;;;6102001;23;20192;-81
2023/08/28 00:54:45;;;;;;;23.50;15.90;;;20.70;99.90;;;;;;6098233;23;20676;-81
2023/08/28 00:57:26;;;;;;;22.83;15.40;;;20.70;99.90;;;;;;6101513;23;20169;-79
2023/08/28 01:00:19;;;;;;;21.73;14.50;;;20.80;99.90;;;;;;6123362;23;20177;-87
2023/08/28 01:02:53;;;;;;;21.97;14.70;;;20.70;99.90;;;;;;6100138;23;20161;-87
2023/08/28 01:05:49;;;;;;;20.63;14.20;;;20.60;99.90;;;;;;6100070;23;20181;-87
2023/08/28 01:08:52;;;;;;;18.40;12.30;;;20.60;99.90;;;;;;6123916;23;20180;-86
2023/08/28 01:11:58;;;;;;;23.50;12.57;;;20.60;99.90;;;;;;6123951;23;20176;-86
2023/08/28 01:14:33;;;;;;;19.33;12.27;;;20.50;99.90;;;;;;6123579;23;20179;-86
2023/08/28 01:17:17;;;;;;;20.20;12.37;;;20.40;99.90;;;;;;6125204;23;20169;-87
2023/08/28 01:19:55;;;;;;;19.50;11.70;;;20.30;99.90;;;;;;6076352;23;20181;-86
2023/08/28 01:22:48;;;;;;;15.30;11.27;;;20.10;99.90;;;;;;6124780;23;20172;-86
2023/08/28 01:25:20;;;;;;;18.70;11.83;;;20.00;99.90;;;;;;6124826;23;20212;-86
2023/08/28 01:28:02;;;;;;;14.93;9.60;;;19.90;99.90;;;;;;6124769;23;20187;-87
2023/08/28 01:30:35;;;;;;;15.43;10.13;;;19.80;99.90;;;;;;6124254;23;20235;-86
2023/08/28 01:33:21;;;;;;;10.93;7.67;;;19.70;99.90;;;;;;6099112;23;20181;-87
2023/08/28 01:36:36;;;;;;;9.70;6.83;;;19.60;99.90;;;;;;6099659;23;20239;-80
2023/08/28 01:51:49;;;;;;;;;;;;;;;;;;;;;
2023/08/28 01:55:14;;;;;;;6.07;4.17;;;19.30;99.90;;;;;;5825193;24;20171;-87
2023/08/28 01:58:13;;;;;;;7.77;4.13;;;19.00;99.90;;;;;;5818582;24;20167;-87
2023/08/28 02:01:06;;;;;;;6.87;4.20;;;18.90;99.90;;;;;;5773229;24;20475;-86
2023/08/28 02:04:17;;;;;;;7.57;4.30;;;19.00;99.90;;;;;;5794051;24;20465;-82
2023/08/28 02:07:45;;;;;;;;;;;;;;;;;;;;;
2023/08/28 02:26:13;;;;;;;;;;;;;;;;;;;;;
2023/08/28 02:30:22;;;;;;;5.53;4.37;;;18.70;99.90;;;;;;5954254;24;20193;-82
2023/08/28 02:33:48;;;;;;;6.67;4.67;;;18.60;99.90;;;;;;5757212;24;20217;-82
2023/08/28 03:01:45;;;;;;;;;;;;;;;;;;;;;
2023/08/28 03:17:36;;;;;;;8.90;5.33;;;18.30;99.90;;;;;;5825543;24;20341;-81
2023/08/28 03:34:15;;;;;;;;;;;;;;;;;;;;;
2023/08/28 06:22:31;;;;;;;9.97;5.00;;;19.30;99.90;;;;;;6265631;22;20209;-84
2023/08/28 06:25:11;;;;;;;5.33;4.30;;;19.20;99.90;;;;;;6247239;22;20675;-80
2023/08/28 06:37:50;;;;;;;5.77;4.10;;;19.60;99.90;;;;;;6271785;22;20209;-81
2023/08/28 06:40:24;;;;;;;7.87;4.10;;;19.70;99.90;;;;;;6247865;22;20519;-83
2023/08/28 06:42:57;;;;;;;7.67;3.97;;;19.70;99.90;;;;;;6273431;22;20302;-81
2023/08/28 06:45:31;;;;;;;5.37;3.50;;;19.70;99.90;;;;;;6272544;22;20494;-82
2023/08/28 06:48:08;;;;;;;4.47;3.30;;;19.90;99.90;;;;;;6272545;22;20528;-80
2023/08/28 06:50:45;;;;;;;5.70;3.50;;;19.90;99.90;;;;;;6267520;22;22121;-80
2023/08/28 06:53:22;;;;;;;6.77;3.40;;;20.00;99.90;;;;;;6241912;23;20166;-80
2023/08/28 06:55:53;;;;;;;12.47;4.17;;;19.90;99.90;;;;;;6243496;22;20230;-79
2023/08/28 06:58:30;;;;;;;4.97;3.80;;;20.10;99.90;;;;;;6243678;22;20151;-79
2023/08/28 07:01:43;;;;;;;;;;;;;;;;;;;;;
2023/08/28 07:04:46;;;;;;;6.40;4.40;;;20.40;99.90;;;;;;6145992;23;20180;-78
2023/08/28 07:07:20;;;;;;;5.60;4.10;;;20.30;99.90;;;;;;6073292;23;20684;-83
2023/08/28 07:10:24;;;;;;;5.90;4.47;;;20.50;99.90;;;;;;6074566;23;20212;-81
2023/08/28 07:12:58;;;;;;;9.13;3.93;;;20.60;99.90;;;;;;6096653;23;20188;-81
2023/08/28 07:15:46;;;;;;;5.17;4.23;;;20.80;99.90;;;;;;6069531;23;20169;-87
2023/08/28 07:18:25;;;;;;;6.40;4.70;;;20.90;99.90;;;;;;6097051;23;20176;-82
2023/08/28 07:20:57;;;;;;;6.33;4.50;;;20.70;99.90;;;;;;6073876;23;20200;-81
2023/08/28 07:23:29;;;;;;;7.13;4.47;;;20.80;99.90;;;;;;6096991;23;20189;-82
2023/08/28 07:26:23;;;;;;;5.73;3.80;;;20.90;99.90;;;;;;6100009;23;20216;-83
2023/08/28 07:29:58;;;;;;;5.83;4.30;;;20.90;99.90;;;;;;6089920;23;20487;-82
2023/08/28 07:33:18;;;;;;;7.10;4.43;;;21.30;99.90;;;;;;6006272;23;20162;-83
2023/08/28 07:39:15;;;;;;;5.23;3.90;;;21.60;99.90;;;;;;6034287;23;20190;-81
2023/08/28 07:41:47;;;;;;;13.23;4.47;;;21.70;99.90;;;;;;6034204;23;20171;-81
2023/08/28 07:45:28;;;;;;;8.70;4.27;;;21.60;99.90;;;;;;5947029;24;20241;-84
2023/08/28 07:48:52;;;;;;;10.50;4.63;;;21.50;99.90;;;;;;5946401;24;20208;-83
2023/08/28 07:55:13;;;;;;;5.63;3.70;;;21.50;99.90;;;;;;6190041;22;20645;-84
2023/08/28 07:57:57;;;;;;;5.40;3.17;;;21.50;99.90;;;;;;6247153;22;20224;-81
2023/08/28 08:28:38;;;;;;;6.57;4.07;;;23.30;99.90;;;;;;6238447;22;20209;-83
2023/08/28 10:06:18;;;;;;;4.30;3.47;;;22.70;99.90;;;;;;6237717;22;20210;-86
2023/08/28 10:08:58;;;;;;;8.80;4.10;;;22.70;99.90;;;;;;6241797;23;20212;-88
2023/08/28 10:11:55;;;;;;;5.13;3.93;;;22.80;99.90;;;;;;6244153;22;20194;-85
2023/08/28 10:18:52;;;;;;;5.90;3.50;;;22.90;99.90;;;;;;6242617;23;20158;-84
2023/08/28 10:21:31;;;;;;;4.93;3.53;;;23.10;99.90;;;;;;6244518;22;20235;-85
2023/08/28 10:24:10;;;;;;;5.10;3.80;;;23.20;99.90;;;;;;6244671;22;20189;-84
2023/08/28 10:26:45;;;;;;;5.37;3.47;;;23.30;99.90;;;;;;6242873;23;20197;-84
2023/08/28 10:29:34;;;;;;;4.53;3.63;;;23.70;99.90;;;;;;6242886;23;20177;-83
2023/08/28 10:35:21;;;;;;;6.27;4.17;;;24.00;99.90;;;;;;6210629;23;20195;-84
2023/08/28 10:38:06;;;;;;;4.50;3.80;;;23.80;99.90;;;;;;6137329;23;20171;-83
2023/08/28 10:40:36;;;;;;;6.72;4.03;;;23.70;99.90;;;;;;6160593;23;20225;-82
2023/08/28 10:43:15;;;;;;;6.60;4.00;;;24.10;99.90;;;;;;6185652;23;20185;-82
2023/08/28 10:45:54;;;;;;;7.60;4.30;;;24.20;99.90;;;;;;6185267;23;20175;-83
2023/08/28 10:48:38;;;;;;;6.35;4.03;;;24.30;99.90;;;;;;6210913;23;20178;-82
2023/08/28 10:53:53;;;;;;;6.00;3.97;;;24.30;99.90;;;;;;6233075;22;20210;-80
2023/08/28 10:56:38;;;;;;;4.23;3.60;;;24.10;99.90;;;;;;6241988;23;20170;-83
2023/08/28 11:00:02;;;;;;;5.05;3.58;;;24.10;99.90;;;;;;6242739;23;20683;-82
2023/08/28 11:03:10;;;;;;;6.60;3.65;;;23.80;99.90;;;;;;6241961;23;20208;-84
2023/08/28 11:05:45;;;;;;;4.65;3.58;;;23.90;99.90;;;;;;6242320;23;20204;-84
2023/08/28 11:13:05;;;;;;;8.33;4.30;;;23.40;99.90;;;;;;5977659;24;20164;-84
2023/08/28 11:16:03;;;;;;;5.13;3.90;;;22.90;99.90;;;;;;5898911;24;20703;-82
2023/08/28 11:18:57;;;;;;;4.87;3.60;;;22.90;99.90;;;;;;5922781;24;20177;-84
2023/08/28 11:21:47;;;;;;;6.67;4.30;;;22.70;99.90;;;;;;5921364;24;20217;-83
2023/08/28 11:24:31;;;;;;;6.43;4.40;;;22.40;99.90;;;;;;5922473;24;20231;-83
2023/08/28 11:27:42;;;;;;;6.33;4.50;;;22.00;99.90;;;;;;5902559;24;20210;-82
2023/08/28 11:30:25;;;;;;;7.07;4.53;;;21.50;99.90;;;;;;5872673;24;20178;-84
2023/08/28 11:32:57;;;;;;;7.13;4.50;;;21.30;99.90;;;;;;5851102;24;20159;-83
2023/08/28 11:35:30;;;;;;;7.73;4.90;;;21.20;99.90;;;;;;5872944;24;20174;-83
2023/08/28 11:38:03;;;;;;;7.37;5.40;;;21.20;99.90;;;;;;5850118;24;20245;-82
2023/08/28 11:40:29;;;;;;;7.23;4.80;;;21.20;99.90;;;;;;5871815;24;20198;-81
2023/08/28 11:43:04;;;;;;;14.27;5.83;;;21.20;99.90;;;;;;5872635;24;20166;-81
2023/08/28 11:45:34;;;;;;;6.53;5.10;;;21.20;99.90;;;;;;5848560;24;20264;-82
2023/08/28 11:48:05;;;;;;;7.10;5.33;;;21.30;99.90;;;;;;5904540;23;20159;-82
2023/08/28 11:50:47;;;;;;;9.50;5.53;;;21.20;99.90;;;;;;6017561;23;20229;-83
2023/08/28 11:53:40;;;;;;;9.47;5.57;;;21.20;99.90;;;;;;6062168;23;20332;-82
2023/08/28 11:56:35;;;;;;;8.97;5.53;;;21.10;99.90;;;;;;6019705;23;20174;-82
2023/08/28 11:59:08;;;;;;;9.37;6.17;;;20.90;99.90;;;;;;6040140;23;20431;-82
2023/08/28 12:01:40;;;;;;;9.20;6.73;;;20.90;99.90;;;;;;6017339;23;20185;-81
2023/08/28 12:04:22;;;;;;;7.87;6.20;;;20.90;99.90;;;;;;6064838;23;20584;-82
2023/08/28 12:07:25;;;;;;;7.90;6.03;;;20.80;99.90;;;;;;6064028;23;20194;-82
2023/08/28 12:09:58;;;;;;;17.50;6.60;;;20.70;99.90;;;;;;6013291;23;20178;-82
2023/08/28 12:12:29;;;;;;;10.27;6.70;;;20.80;99.90;;;;;;6040773;23;20222;-82
2023/08/28 12:15:14;;;;;;;9.40;6.63;;;20.90;99.90;;;;;;6042012;23;20171;-84
2023/08/28 12:18:16;;;;;;;7.57;5.80;;;20.60;99.90;;;;;;6064892;23;20206;-84
2023/08/28 12:21:08;;;;;;;9.80;6.20;;;20.50;99.90;;;;;;6021340;23;20209;-82
2023/08/28 12:23:53;;;;;;;8.30;6.10;;;20.50;99.90;;;;;;6017770;23;20709;-83
2023/08/28 12:26:33;;;;;;;8.57;6.10;;;20.40;99.90;;;;;;6055275;23;20267;-84
2023/08/28 12:29:11;;;;;;;8.50;6.23;;;20.50;99.90;;;;;;6104810;23;20239;-82
2023/08/28 12:31:51;;;;;;;13.87;6.40;;;20.50;99.90;;;;;;6129826;23;20327;-82
2023/08/28 12:34:27;;;;;;;9.70;6.40;;;20.50;99.90;;;;;;6128542;23;20206;-83
2023/08/28 12:37:05;;;;;;;8.67;6.20;;;20.40;99.90;;;;;;6152848;23;20266;-84
2023/08/28 12:39:35;;;;;;;9.90;6.77;;;20.40;99.90;;;;;;6103629;23;20196;-82
2023/08/28 12:42:03;;;;;;;11.07;6.47;;;20.30;99.90;;;;;;6152060;23;20228;-83
2023/08/28 12:44:31;;;;;;;10.63;6.60;;;20.30;99.90;;;;;;6127580;23;20184;-83
2023/08/28 12:47:00;;;;;;;9.57;6.30;;;20.20;99.90;;;;;;6127599;23;20182;-83
2023/08/28 12:49:32;;;;;;;10.33;7.00;;;20.10;99.90;;;;;;6103150;23;20211;-78
2023/08/28 12:52:05;;;;;;;10.63;6.70;;;20.00;99.90;;;;;;6127594;23;20189;-84
2023/08/28 12:54:35;;;;;;;10.83;6.60;;;20.00;99.90;;;;;;6127640;23;20331;-82
2023/08/28 12:57:07;;;;;;;9.53;6.60;;;20.00;99.90;;;;;;6101639;23;20255;-82
2023/08/28 12:59:46;;;;;;;12.60;7.03;;;20.10;99.90;;;;;;6151438;23;20614;-82
2023/08/28 13:02:27;;;;;;;10.53;7.17;;;20.20;99.90;;;;;;6152284;23;20223;-84
2023/08/28 13:05:08;;;;;;;9.30;6.83;;;20.30;99.90;;;;;;6151484;23;20168;-85
2023/08/28 13:07:37;;;;;;;13.53;7.40;;;20.20;99.90;;;;;;6128119;23;20263;-82
2023/08/28 13:10:12;;;;;;;9.73;6.70;;;20.10;99.90;;;;;;6151768;23;20172;-85
2023/08/28 13:12:44;;;;;;;8.77;6.43;;;20.00;99.90;;;;;;6127936;23;20184;-85
2023/08/28 13:15:18;;;;;;;11.43;6.57;;;20.10;99.90;;;;;;6127776;23;20168;-83
2023/08/28 13:17:49;;;;;;;8.50;6.30;;;20.10;99.90;;;;;;6127704;23;20175;-83
2023/08/28 13:20:21;;;;;;;9.20;6.57;;;20.20;99.90;;;;;;6103271;23;20200;-84
2023/08/28 13:23:01;;;;;;;7.73;5.93;;;20.50;99.90;;;;;;6104616;23;20171;-80
2023/08/28 13:25:38;;;;;;;8.90;6.27;;;20.70;99.90;;;;;;6128909;23;20234;-83
2023/08/28 13:28:13;;;;;;;7.50;5.80;;;20.80;99.90;;;;;;6151715;23;20173;-80
2023/08/28 13:30:44;;;;;;;10.57;6.33;;;20.90;99.90;;;;;;6151677;23;20179;-80
2023/08/28 13:33:20;;;;;;;8.97;6.77;;;21.00;99.90;;;;;;6103165;23;20259;-84
2023/08/28 13:35:54;;;;;;;8.23;5.80;;;20.90;99.90;;;;;;6152023;23;20276;-83
2023/08/28 13:38:23;;;;;;;10.23;6.60;;;21.00;99.90;;;;;;6103361;23;20199;-82
2023/08/28 13:40:52;;;;;;;8.47;5.27;;;21.10;99.90;;;;;;6127549;23;20227;-81
2023/08/28 13:43:23;;;;;;;9.73;6.03;;;21.20;99.90;;;;;;6151612;23;20182;-80
2023/08/28 13:45:57;;;;;;;7.50;6.03;;;21.40;99.90;;;;;;6150107;23;20172;-80
2023/08/28 13:48:40;;;;;;;8.43;5.90;;;21.50;99.90;;;;;;6103827;23;20164;-80
2023/08/28 13:51:12;;;;;;;9.00;5.97;;;21.60;99.90;;;;;;6151472;23;20202;-82
2023/08/28 13:57:56;;;;;;;8.50;5.50;;;22.30;99.90;;;;;;6149395;23;20195;-84
2023/08/28 14:00:35;;;;;;;6.17;5.40;;;22.60;99.90;;;;;;6151654;23;20192;-82
2023/08/28 14:03:08;;;;;;;9.83;5.77;;;22.70;99.90;;;;;;6151603;23;20172;-84
2023/08/28 14:05:38;;;;;;;11.80;6.33;;;22.50;99.90;;;;;;6126839;23;20192;-83
2023/08/28 14:08:09;;;;;;;7.50;5.60;;;22.50;99.90;;;;;;6124644;23;20196;-75
2023/08/28 14:10:42;;;;;;;8.13;5.13;;;22.30;99.90;;;;;;6126302;23;20507;-83
2023/08/28 14:13:12;;;;;;;10.77;6.03;;;22.20;99.90;;;;;;6151516;23;20186;-81
2023/08/28 14:15:41;;;;;;;7.07;5.53;;;22.30;99.90;;;;;;6126884;23;20223;-81
2023/08/28 14:18:20;;;;;;;8.57;5.87;;;22.30;99.90;;;;;;6127937;23;20168;-81
2023/08/28 14:20:54;;;;;;;9.53;5.90;;;22.20;99.90;;;;;;6125981;23;20663;-79
2023/08/28 14:23:27;;;;;;;12.93;5.73;;;22.10;99.90;;;;;;6150226;23;20179;-79
2023/08/28 14:26:20;;;;;;;8.97;5.50;;;22.20;99.90;;;;;;6150376;23;20168;-79
2023/08/28 14:28:55;;;;;;;7.27;5.43;;;22.00;99.90;;;;;;6127447;23;20199;-78
2023/08/28 14:31:31;;;;;;;9.03;5.60;;;22.00;99.90;;;;;;6126814;23;20448;-79
2023/08/28 14:34:01;;;;;;;10.57;5.53;;;22.00;99.90;;;;;;6151078;23;20543;-80
2023/08/28 14:36:34;;;;;;;7.30;5.47;;;22.00;99.90;;;;;;6126463;23;20219;-82
2023/08/28 14:39:05;;;;;;;10.73;5.70;;;22.10;99.90;;;;;;6103248;23;20175;-80
2023/08/28 14:41:34;;;;;;;8.00;5.40;;;22.10;99.90;;;;;;6151346;23;20254;-83
2023/08/28 14:44:09;;;;;;;7.03;5.50;;;22.10;99.90;;;;;;6126550;23;20172;-82
2023/08/28 14:46:45;;;;;;;10.87;5.70;;;22.20;99.90;;;;;;6149927;23;20179;-82
2023/08/28 14:49:14;;;;;;;6.57;5.43;;;22.10;99.90;;;;;;6150807;23;20200;-82
2023/08/28 14:51:45;;;;;;;9.33;5.83;;;22.20;99.90;;;;;;6126771;23;20243;-79
2023/08/28 14:54:19;;;;;;;8.43;5.70;;;22.20;99.90;;;;;;6151275;23;20671;-79
2023/08/28 14:56:52;;;;;;;7.40;5.70;;;22.10;99.90;;;;;;6126291;23;20312;-77
2023/08/28 14:59:46;;;;;;;7.30;5.60;;;22.20;99.90;;;;;;6150505;23;20176;-78
2023/08/28 15:02:19;;;;;;;8.67;5.90;;;22.20;99.90;;;;;;6126061;23;20317;-81
2023/08/28 15:04:56;;;;;;;7.23;5.53;;;22.20;99.90;;;;;;6127357;23;20681;-81
2023/08/28 15:07:29;;;;;;;9.00;5.93;;;22.20;99.90;;;;;;6101732;23;20171;-79
2023/08/28 15:10:03;;;;;;;9.13;6.17;;;22.20;99.90;;;;;;6126590;23;20172;-78
2023/08/28 15:12:55;;;;;;;8.70;5.73;;;22.10;99.90;;;;;;6122183;23;20210;-79
2023/08/28 15:15:30;;;;;;;8.77;5.50;;;22.10;99.90;;;;;;6127127;23;20156;-79
2023/08/28 15:18:09;;;;;;;10.07;5.93;;;22.00;99.90;;;;;;6150336;23;20327;-80
2023/08/28 15:20:48;;;;;;;10.40;6.20;;;22.20;99.90;;;;;;6150980;23;20283;-81
2023/08/28 15:23:40;;;;;;;12.07;6.60;;;22.20;99.90;;;;;;6103276;23;20552;-81
2023/08/28 15:26:09;;;;;;;9.40;6.23;;;22.20;99.90;;;;;;6122638;23;20199;-79
2023/08/28 15:28:52;;;;;;;8.80;5.73;;;22.20;99.90;;;;;;6126543;23;20172;-87
2023/08/28 15:31:24;;;;;;;9.43;5.73;;;22.10;99.90;;;;;;6127656;23;20168;-84
2023/08/28 15:47:46;;;;;;;;;;;;;;;;;;;;;
2023/08/28 16:51:25;;;;;;;7.73;5.50;;;21.40;99.90;;;;;;6226072;22;20208;-82
2023/08/28 16:54:55;;;;;;;;;;;;;;;;;;;;;
2023/08/28 16:58:00;;;;;;;7.30;5.13;;;21.30;99.90;;;;;;6078944;23;20256;-86
2023/08/28 17:05:05;;;;;;;7.13;4.90;;;21.20;99.90;;;;;;5985125;23;20171;-83
2023/08/28 17:08:30;;;;;;;7.97;5.77;;;21.20;99.90;;;;;;6167668;22;20735;-82
2023/08/28 17:11:06;;;;;;;9.67;5.73;;;21.10;99.90;;;;;;6219607;23;20197;-80
2023/08/28 17:13:52;;;;;;;11.37;5.87;;;21.10;99.90;;;;;;6205174;22;20206;-81
2023/08/28 17:16:43;;;;;;;8.77;5.67;;;21.10;99.90;;;;;;6239718;23;20174;-82
2023/08/28 17:25:03;;;;;;;7.80;5.87;;;21.00;99.90;;;;;;6273717;22;20193;-82
2023/08/28 17:43:31;;;;;;;11.23;6.27;;;20.90;99.90;;;;;;6138522;23;20176;-78
2023/08/28 17:46:47;;;;;;;10.13;6.17;;;20.90;99.90;;;;;;6024298;23;20213;-82
2023/08/28 17:49:15;;;;;;;8.50;6.17;;;20.80;99.90;;;;;;6061934;23;20170;-81
2023/08/28 17:52:00;;;;;;;8.07;6.47;;;20.90;99.90;;;;;;6062125;23;20205;-82
2023/08/28 17:54:34;;;;;;;11.87;6.93;;;20.80;99.90;;;;;;6039886;23;20178;-82
2023/08/28 17:57:05;;;;;;;11.93;6.50;;;20.80;99.90;;;;;;6062181;23;20210;-83
2023/08/28 17:59:41;;;;;;;26.07;8.97;;;20.80;99.90;;;;;;6038906;23;20185;-81
2023/08/28 18:02:22;;;;;;;8.77;6.33;;;20.80;99.90;;;;;;6059189;23;20342;-82
2023/08/28 18:09:24;;;;;;;10.97;5.97;;;20.80;99.90;;;;;;6136724;23;20560;-80
2023/08/28 18:11:52;;;;;;;8.90;6.10;;;20.90;99.90;;;;;;6194461;23;20606;-80
2023/08/28 18:14:24;;;;;;;11.43;6.70;;;20.80;99.90;;;;;;6241659;23;20212;-81
2023/08/28 18:17:14;;;;;;;7.60;5.90;;;20.80;99.90;;;;;;6243014;23;20332;-81
2023/08/28 18:19:58;;;;;;;7.23;5.90;;;20.80;99.90;;;;;;6236754;23;20522;-80
2023/08/28 18:22:43;;;;;;;10.10;6.00;;;20.80;99.90;;;;;;6220184;23;20178;-81
2023/08/28 18:25:46;;;;;;;40.03;11.07;;;20.80;99.90;;;;;;6239212;23;20602;-84
2023/08/28 18:28:20;;;;;;;11.00;6.73;;;20.70;99.90;;;;;;6127698;23;20168;-79
2023/08/28 18:33:58;;;;;;;8.60;5.87;;;20.70;99.90;;;;;;6126241;23;20407;-80
2023/08/28 18:36:34;;;;;;;9.23;6.13;;;20.70;99.90;;;;;;6150804;23;20200;-78
2023/08/28 18:39:06;;;;;;;12.40;7.00;;;20.70;99.90;;;;;;6150837;23;20180;-80
2023/08/28 18:41:38;;;;;;;11.97;6.70;;;20.70;99.90;;;;;;6125551;23;20639;-80
2023/08/28 18:44:15;;;;;;;8.73;6.30;;;20.70;99.90;;;;;;6126659;23;20196;-79
2023/08/28 18:47:28;;;;;;;11.43;6.67;;;20.70;99.90;;;;;;6101443;23;20283;-81
2023/08/28 18:50:00;;;;;;;12.87;6.53;;;20.70;99.90;;;;;;6124457;23;20183;-75
2023/08/28 18:52:28;;;;;;;8.33;6.30;;;20.60;99.90;;;;;;6149110;23;20172;-77
2023/08/28 18:54:55;;;;;;;9.73;6.57;;;20.70;99.90;;;;;;6150137;23;20192;-83
2023/08/28 18:57:23;;;;;;;8.93;6.87;;;20.70;99.90;;;;;;6150720;23;20498;-76
2023/08/28 18:59:51;;;;;;;9.23;6.03;;;20.70;99.90;;;;;;6149159;23;20676;-76
2023/08/28 19:02:30;;;;;;;11.07;6.97;;;20.70;99.90;;;;;;6149984;23;20191;-79
2023/08/28 19:04:57;;;;;;;15.60;7.87;;;20.70;99.90;;;;;;6205236;23;20617;-75
2023/08/28 19:07:26;;;;;;;11.47;7.17;;;20.70;99.90;;;;;;6242439;22;20609;-75
2023/08/28 19:09:58;;;;;;;12.53;7.40;;;20.70;99.90;;;;;;6243716;22;20197;-76
2023/08/28 19:12:31;;;;;;;9.10;7.17;;;20.70;99.90;;;;;;6242312;22;20166;-76
2023/08/28 19:14:58;;;;;;;12.87;6.90;;;20.70;99.90;;;;;;6243975;22;20166;-75
2023/08/28 19:17:34;;;;;;;10.57;6.67;;;20.70;99.90;;;;;;6243007;22;20329;-77
2023/08/28 19:20:08;;;;;;;9.67;6.10;;;20.60;99.90;;;;;;6242421;22;20237;-76
2023/08/28 19:22:38;;;;;;;15.50;6.63;;;20.60;99.90;;;;;;6243238;22;20260;-78
2023/08/28 19:25:15;;;;;;;7.93;6.13;;;20.60;99.90;;;;;;6241535;22;20177;-76
2023/08/28 19:27:50;;;;;;;12.37;7.07;;;20.60;99.90;;;;;;6243199;22;20166;-76
2023/08/28 19:30:18;;;;;;;10.70;6.30;;;20.70;99.90;;;;;;6241804;22;20166;-75
2023/08/28 19:32:50;;;;;;;8.53;5.87;;;20.60;99.90;;;;;;6243104;22;20232;-79
2023/08/28 19:35:23;;;;;;;12.30;6.43;;;20.60;99.90;;;;;;6217184;23;20196;-81
2023/08/28 19:38:00;;;;;;;9.57;5.70;;;20.60;99.90;;;;;;6217663;23;20177;-79
2023/08/28 19:40:33;;;;;;;9.87;6.23;;;20.70;99.90;;;;;;6243571;22;20162;-79
2023/08/28 19:43:22;;;;;;;7.23;5.60;;;20.60;99.90;;;;;;6240952;23;20232;-80
2023/08/28 19:45:56;;;;;;;9.33;5.80;;;20.60;99.90;;;;;;6239505;22;20170;-79
2023/08/28 19:48:31;;;;;;;9.50;5.93;;;20.60;99.90;;;;;;6243607;22;20186;-79
2023/08/28 19:51:08;;;;;;;9.10;5.87;;;20.60;99.90;;;;;;6241368;23;20201;-79
2023/08/28 19:53:40;;;;;;;7.73;5.73;;;20.60;99.90;;;;;;6241269;23;20632;-79
2023/08/28 19:56:16;;;;;;;9.43;6.30;;;20.60;99.90;;;;;;6061040;22;173399;-81
2023/08/28 19:58:47;;;;;;;18.87;7.60;;;20.50;99.90;;;;;;6156569;23;20571;-84
2023/08/28 20:01:15;;;;;;;14.73;6.47;;;20.50;99.90;;;;;;6152031;23;20188;-78
2023/08/28 20:04:08;;;;;;;11.97;6.23;;;20.40;99.90;;;;;;6127324;23;20172;-80
2023/08/28 20:06:51;;;;;;;9.20;5.63;;;20.40;99.90;;;;;;6127126;23;20223;-78
2023/08/28 20:09:20;;;;;;;8.70;5.73;;;20.50;99.90;;;;;;6152784;23;20243;-77
2023/08/28 20:12:00;;;;;;;12.17;6.07;;;20.60;99.90;;;;;;6152987;23;20164;-80
2023/08/28 20:15:16;;;;;;;9.20;5.60;;;20.60;99.90;;;;;;6144529;23;20632;-80
2023/08/28 20:18:24;;;;;;;7.17;5.50;;;20.70;99.90;;;;;;6127175;23;20624;-80
2023/08/28 20:26:16;;;;;;;;;;;;;;;;;;;;;
2023/08/28 20:33:00;;;;;;;12.90;6.60;;;20.60;99.90;;;;;;5973816;23;20609;-81
2023/08/28 20:35:43;;;;;;;9.67;6.00;;;20.60;99.90;;;;;;5898579;24;20197;-81
2023/08/28 20:38:41;;;;;;;10.00;5.70;;;20.50;99.90;;;;;;5918977;24;20186;-81
2023/08/28 21:19:13;;;;;;;7.27;5.73;;;20.30;99.90;;;;;;6065769;23;20558;-83
2023/08/28 21:21:54;;;;;;;7.93;5.80;;;20.30;99.90;;;;;;6115994;23;20209;-81
2023/08/28 21:38:31;;;;;;;9.30;6.50;;;20.20;99.90;;;;;;6127180;23;20160;-87
2023/08/28 21:41:40;;;;;;;9.30;6.63;;;20.20;99.90;;;;;;6152141;23;20269;-87
2023/08/28 21:44:15;;;;;;;9.40;6.40;;;20.10;99.90;;;;;;6126697;23;20242;-85
2023/08/28 21:59:29;;;;;;;7.40;6.30;;;20.20;99.90;;;;;;6206083;23;20206;-82
2023/08/28 22:02:28;;;;;;;;;;;;;;;;;;;;;
2023/08/28 22:05:31;;;;;;;10.60;6.97;;;20.10;99.90;;;;;;6194179;23;20194;-79
2023/08/28 22:09:56;;;;;;;;;;;;;;;;;;;;;
2023/08/28 22:41:28;;;;;;;16.03;7.20;;;20.20;99.90;;;;;;6183570;23;20273;-85
2023/08/28 22:43:56;;;;;;;10.23;6.60;;;20.10;99.90;;;;;;6181492;23;20667;-83
2023/08/28 22:46:39;;;;;;;14.80;7.30;;;20.10;99.90;;;;;;6156791;23;20222;-86
2023/08/28 22:49:36;;;;;;;19.47;8.50;;;20.20;99.90;;;;;;6152075;23;20258;-85
2023/08/28 23:32:51;;;;;;;;;;;;;;;;;;;;;
